ADDS METAR Data INFO
IDs: Format: Raw Decoded Include TAF

Data at: 0854 UTC 19 Jun 2018

KAAT 190755Z AUTO 00000KT 10SM CLR 08/07 A3018 RMK AO2 SLP198 T00780072 402170033
KAAT 190655Z AUTO 02003KT 10SM CLR 09/08 A3018 RMK AO2 SLP196 T00940078
KAAT 190555Z AUTO 14003KT 10SM CLR 11/09 A3018 RMK AO2 SLP198 T01110089 10178 20111 50008
KAAT 190455Z AUTO 35004KT 10SM BKN095 13/09 A3018 RMK AO2 SLP199 T01330094
KAAT 190355Z AUTO 27005KT 10SM FEW075 14/09 A3016 RMK AO2 SLP193 T01440094
KAAT 190255Z AUTO 24004KT 10SM BKN065 16/09 A3015 RMK AO2 SLP189 T01560089 53003
KAAT 190155Z AUTO 00000KT 10SM SCT100 17/09 A3014 RMK AO2 SLP186 T01720089
KAAT 190055Z AUTO 21005KT 10SM OVC090 16/10 A3014 RMK AO2 SLP190 T01560100
KAAT 182355Z AUTO VRB04KT 10SM SCT075 OVC090 16/10 A3014 RMK AO2 RAB39E48 SLP192 P0000 60001 T01560100 10217 20128 53009
KAAT 182255Z AUTO 02013G24KT 10SM FEW021 OVC070 13/09 A3013 RMK AO2 PK WND 01029/2230 WSHFT 2211 RAB29E42 SLP191 P0001 T01330094
KAAT 182231Z AUTO 01022G29KT 8SM -RA SCT055 BKN070 OVC085 14/09 A3012 RMK AO2 PK WND 01029/2230 WSHFT 2211 RAB29 P0000 T01440089
KAAT 182155Z AUTO 34009KT 10SM FEW055 SCT090 BKN110 22/07 A3010 RMK AO2 SLP165 T02170072
KAAT 182055Z AUTO 33005KT 10SM SCT050 BKN060 OVC085 19/06 A3011 RMK AO2 SLP172 T01890061 56008
KAAT 181955Z AUTO 36007G15KT 10SM FEW046 BKN065 18/06 A3011 RMK AO2 SLP171 T01830061
KAAT 181855Z AUTO 27005KT 10SM FEW120 17/10 A3012 RMK AO2 SLP177 T01670100
KAAT 181755Z AUTO 00000KT 10SM SCT065 SCT080 OVC090 13/09 A3013 RMK AO2 SLP189 T01280094 10128 20039 51007
KAAT 181655Z AUTO 00000KT 10SM FEW065 OVC090 11/09 A3013 RMK AO2 SLP187 T01110094
KAAT 181555Z AUTO 00000KT 10SM BKN060 OVC080 09/09 A3012 RMK AO2 SLP184 T00940089
KAAT 181455Z AUTO 00000KT 10SM OVC060 08/08 A3011 RMK AO2 SLP181 T00830083 51017
KAAT 181355Z AUTO 00000KT 10SM OVC065 07/07 A3009 RMK AO2 SLP175 T00720072
KAAT 181255Z AUTO 00000KT 10SM BKN065 OVC080 06/06 A3007 RMK AO2 SLP171 T00610061
KAAT 181236Z AUTO 00000KT 3SM BR BKN070 06/06 A3007 RMK AO2 T00560056
KAAT 181231Z AUTO 00000KT 1SM BR FEW001 FEW060 SCT070 06/05 A3007 RMK AO2 T00560050
KAAT 181155Z AUTO 00000KT 1/4SM FG VV001 04/04 A3005 RMK AO2 SLP167 60001 70011 T00390039 10100 20033 53001
KAAT 181113Z AUTO 05003KT 3/4SM BR VV002 06/06 A3005 RMK AO2 T00560056
KAAT 181110Z AUTO 05003KT 1 1/2SM BR CLR 06/06 A3005 RMK AO2 T00560056
KAAT 181102Z AUTO 00000KT 4SM BR FEW002 06/06 A3005 RMK AO2 T00560056
KAAT 181058Z AUTO 00000KT 1 1/4SM BR FEW002 06/06 A3005 RMK AO2 T00560056
KAAT 181055Z AUTO 18003KT 1/2SM FG VV002 05/05 A3004 RMK AO2 SLP162 T00500050
KAAT 181038Z AUTO 00000KT 1/2SM FG VV002 05/05 A3005 RMK AO2 T00500050
KAAT 181031Z AUTO 00000KT 1SM BR VV002 06/06 A3005 RMK AO2 T00560056
KAAT 181026Z AUTO 00000KT 2 1/2SM BR FEW002 06/06 A3005 RMK AO2 T00610056
KAAT 181017Z AUTO VRB03KT 1 1/4SM BR FEW002 06/06 A3004 RMK AO2 T00560056
KAAT 181006Z AUTO 00000KT 3/4SM BR CLR 07/07 A3004 RMK AO2 T00670067
KAAT 180955Z AUTO 00000KT 10SM CLR 07/07 A3004 RMK AO2 SLP152 T00720067
KAAT 180855Z AUTO 00000KT 10SM SCT100 BKN110 07/07 A3005 RMK AO2 SLP154 60001 T00720072 51003
KAAT 180755Z AUTO 00000KT 10SM SCT055 OVC075 09/08 A3005 RMK AO2 RAE08 SLP153 P0001 T00940083 401720078
KAAT 180655Z AUTO 00000KT 9SM -RA FEW050 BKN070 OVC085 10/08 A3005 RMK AO2 RAB54 SLP155 P0000 T01000083
KAAT 180555Z AUTO 30003KT 10SM FEW070 BKN090 08/08 A3004 RMK AO2 SLP156 60001 T00830078 10139 20078 51016
KAAT 180455Z AUTO 00000KT 10SM BKN065 10/09 A3003 RMK AO2 RAE03 SLP151 P0000 T01000089
KAAT 180355Z AUTO 26006KT 10SM -RA FEW043 BKN055 OVC095 11/09 A3000 RMK AO2 RAB32 SLP140 P0001 T01110094
KAAT 180255Z AUTO 27004KT 10SM SCT065 13/08 A2998 RMK AO2 LTG DSNT W AND NW SLP133 60000 T01280083 53004
KAAT 180155Z AUTO 25004KT 10SM FEW060 SCT100 12/07 A2997 RMK AO2 RAE07 SLP131 P0000 T01220072
KAAT 180055Z AUTO 29004KT 10SM -RA FEW050 BKN065 OVC080 12/09 A2996 RMK AO2 RAB47 SLP128 P0000 T01220089
KAAT 172355Z AUTO 35007KT 10SM FEW026 SCT065 OVC100 13/09 A2997 RMK AO2 RAE48 SLP126 P0006 60006 T01280094 10172 20100 53015
KAAT 172255Z AUTO 34011KT 10SM -RA OVC055 13/08 A2996 RMK AO2 RAB33 SLP122 P0000 T01280083
KAAT 172155Z AUTO 02011G15KT 330V040 10SM FEW050 OVC065 17/04 A2992 RMK AO2 SLP106 T01670044
KAAT 172055Z AUTO 36006G14KT 10SM FEW038 SCT060 BKN070 17/06 A2992 RMK AO2 RAB01E12 SLP105 P0000 60000 T01670056 50003